createdAt,value
2019-05-15T00:01:28.588Z,9.10
2019-05-15T00:03:59.071Z,9.10
2019-05-15T00:06:29.397Z,9.10
2019-05-15T00:09:01.539Z,9.10
2019-05-15T00:11:32.731Z,9.00
2019-05-15T00:14:03.864Z,9.00
2019-05-15T00:16:35.218Z,9.00
2019-05-15T00:19:08.588Z,9.00
2019-05-15T00:21:39.159Z,9.00
2019-05-15T00:24:13.102Z,8.90
2019-05-15T00:26:41.450Z,8.90
2019-05-15T00:29:16.081Z,8.80
2019-05-15T00:31:44.107Z,8.80
2019-05-15T00:34:15.104Z,8.80
2019-05-15T00:36:45.554Z,8.80
2019-05-15T00:39:15.705Z,8.80
2019-05-15T00:41:54.105Z,8.80
2019-05-15T00:44:19.226Z,8.70
2019-05-15T00:46:50.429Z,8.70
2019-05-15T00:49:20.902Z,8.70
2019-05-15T00:51:52.107Z,8.60
2019-05-15T00:54:23.455Z,8.60
2019-05-15T00:56:54.607Z,8.60
2019-05-15T00:59:27.540Z,8.50
2019-05-15T01:01:59.429Z,8.50
2019-05-15T01:04:30.916Z,8.50
2019-05-15T01:07:01.394Z,8.50
2019-05-15T01:09:31.940Z,8.40
2019-05-15T01:12:02.700Z,8.40
2019-05-15T01:14:32.850Z,8.40
2019-05-15T01:17:04.002Z,8.40
2019-05-15T01:19:34.471Z,8.40
2019-05-15T01:22:05.676Z,8.40
2019-05-15T01:24:38.968Z,8.40
2019-05-15T01:27:10.432Z,8.40
2019-05-15T01:29:45.022Z,8.30
2019-05-15T01:32:13.551Z,8.30
2019-05-15T01:34:43.902Z,8.30
2019-05-15T01:37:14.614Z,8.30
2019-05-15T01:39:45.356Z,8.30
2019-05-15T01:42:15.883Z,8.30
2019-05-15T01:44:48.478Z,8.30
2019-05-15T01:47:19.118Z,8.30
2019-05-15T01:49:50.122Z,8.30
2019-05-15T01:52:21.267Z,8.30
2019-05-15T01:54:52.039Z,8.30
2019-05-15T01:57:23.180Z,8.20
2019-05-15T01:59:57.548Z,8.30
2019-05-15T02:02:28.041Z,8.30
2019-05-15T02:04:59.700Z,8.30
2019-05-15T02:07:29.758Z,8.20
2019-05-15T02:09:59.766Z,8.30
2019-05-15T02:12:30.266Z,8.30
2019-05-15T02:15:01.645Z,8.30
2019-05-15T02:17:32.775Z,8.30
2019-05-15T02:20:03.444Z,8.20
2019-05-15T02:22:33.230Z,8.20
2019-05-15T02:25:04.535Z,8.20
2019-05-15T02:27:35.729Z,8.20
2019-05-15T02:30:22.284Z,8.20
2019-05-15T02:32:40.737Z,8.10
2019-05-15T02:35:12.663Z,8.10
2019-05-15T02:37:43.798Z,8.10
2019-05-15T02:40:15.149Z,8.10
2019-05-15T02:42:49.025Z,8.00
2019-05-15T02:45:19.495Z,8.00
2019-05-15T02:47:51.065Z,8.00
2019-05-15T02:50:21.827Z,8.00
2019-05-15T02:52:52.065Z,8.00
2019-05-15T02:55:23.271Z,7.90
2019-05-15T02:57:54.207Z,7.90
2019-05-15T03:00:37.687Z,7.90
2019-05-15T03:03:00.245Z,7.90
2019-05-15T03:05:30.737Z,7.90
2019-05-15T03:08:01.471Z,7.80
2019-05-15T03:10:31.954Z,7.80
2019-05-15T03:13:02.681Z,7.80
2019-05-15T03:15:33.688Z,7.80
2019-05-15T03:18:04.422Z,7.70
2019-05-15T03:20:34.632Z,7.70
2019-05-15T03:23:09.053Z,7.70
2019-05-15T03:25:40.798Z,7.70
2019-05-15T03:28:11.472Z,7.60
2019-05-15T03:31:12.198Z,7.60
2019-05-15T03:33:25.182Z,7.60
2019-05-15T03:35:53.668Z,7.60
2019-05-15T03:38:21.391Z,7.60
2019-05-15T03:40:51.920Z,7.50
2019-05-15T03:43:23.066Z,7.50
2019-05-15T03:45:53.192Z,7.50
2019-05-15T03:48:24.555Z,7.50
2019-05-15T03:50:54.363Z,7.50
2019-05-15T03:53:25.406Z,7.50
2019-05-15T03:55:58.894Z,7.50
2019-05-15T03:58:29.189Z,7.50
2019-05-15T04:01:00.529Z,7.50
2019-05-15T04:03:31.378Z,7.50
2019-05-15T04:06:02.175Z,7.50
2019-05-15T04:08:33.113Z,7.50
2019-05-15T04:11:04.058Z,7.50
2019-05-15T04:13:35.012Z,7.50
2019-05-15T04:16:05.059Z,7.50
2019-05-15T04:18:39.649Z,7.50
2019-05-15T04:21:09.691Z,7.50
2019-05-15T04:23:42.796Z,7.60
2019-05-15T04:26:15.035Z,7.60
2019-05-15T04:28:49.502Z,7.60
2019-05-15T04:31:20.559Z,7.60
2019-05-15T04:33:51.765Z,7.60
2019-05-15T04:36:21.875Z,7.70
2019-05-15T04:38:52.416Z,7.70
2019-05-15T04:41:23.586Z,7.70
2019-05-15T04:43:54.934Z,7.70
2019-05-15T04:46:29.713Z,7.80
2019-05-15T04:48:59.599Z,7.80
2019-05-15T04:51:30.781Z,7.80
2019-05-15T04:54:01.717Z,7.90
2019-05-15T04:56:33.115Z,7.90
2019-05-15T04:59:04.067Z,8.00
2019-05-15T05:01:34.802Z,8.00
2019-05-15T05:04:05.947Z,8.00
2019-05-15T05:06:38.697Z,8.10
2019-05-15T05:09:09.472Z,8.10
2019-05-15T05:11:40.732Z,8.20
2019-05-15T05:14:11.706Z,8.20
2019-05-15T05:16:42.281Z,8.20
2019-05-15T05:19:12.827Z,8.20
2019-05-15T05:21:43.272Z,8.20
2019-05-15T05:24:13.488Z,8.20
2019-05-15T05:26:43.762Z,8.30
2019-05-15T05:29:14.760Z,8.30
2019-05-15T05:31:49.006Z,8.30
2019-05-15T05:34:19.558Z,8.30
2019-05-15T05:36:50.051Z,8.30
2019-05-15T05:39:21.338Z,8.40
2019-05-15T05:41:52.409Z,8.40
2019-05-15T05:44:23.907Z,8.50
2019-05-15T05:46:54.862Z,8.60
2019-05-15T05:49:25.720Z,8.70
2019-05-15T05:51:58.629Z,8.80
2019-05-15T05:54:28.977Z,8.80
2019-05-15T05:56:59.995Z,9.00
2019-05-15T05:59:31.003Z,9.10
2019-05-15T06:02:01.330Z,9.20
2019-05-15T06:04:32.194Z,9.30
2019-05-15T06:07:09.918Z,9.30
2019-05-15T06:09:38.054Z,9.40
2019-05-15T06:12:08.987Z,9.50
2019-05-15T06:14:39.855Z,9.60
2019-05-15T06:17:10.417Z,9.70
2019-05-15T06:19:41.336Z,9.80
2019-05-15T06:22:12.255Z,9.90
2019-05-15T06:24:42.277Z,10.00
2019-05-15T06:27:12.406Z,10.10
2019-05-15T06:29:43.195Z,10.30
2019-05-15T06:32:13.267Z,10.40
2019-05-15T06:34:45.431Z,10.40
2019-05-15T06:37:15.761Z,10.50
2019-05-15T06:39:48.051Z,10.60
2019-05-15T06:42:19.077Z,10.70
2019-05-15T06:44:49.821Z,10.70
2019-05-15T06:47:20.959Z,10.80
2019-05-15T06:49:50.969Z,10.80
2019-05-15T06:52:21.285Z,10.90
2019-05-15T06:54:52.566Z,11.00
2019-05-15T06:57:23.306Z,11.00
2019-05-15T06:59:54.175Z,11.10
2019-05-15T07:02:25.191Z,11.10
2019-05-15T07:04:58.186Z,11.20
2019-05-15T07:07:29.332Z,11.20
2019-05-15T07:09:59.654Z,11.30
2019-05-15T07:12:30.266Z,11.40
2019-05-15T07:15:01.342Z,11.50
2019-05-15T07:17:32.486Z,11.50
2019-05-15T07:20:03.481Z,11.60
2019-05-15T07:22:34.110Z,11.70
2019-05-15T07:25:04.873Z,11.80
2019-05-15T07:27:35.862Z,11.80
2019-05-15T07:30:11.672Z,11.90
2019-05-15T07:32:41.573Z,11.90
2019-05-15T07:35:13.818Z,11.90
2019-05-15T07:37:44.941Z,12.00
2019-05-15T07:40:19.210Z,12.00
2019-05-15T07:42:49.167Z,12.10
2019-05-15T07:45:21.672Z,12.10
2019-05-15T07:47:52.396Z,12.20
2019-05-15T07:50:24.094Z,12.30
2019-05-15T07:52:54.900Z,12.30
2019-05-15T07:55:25.641Z,12.40
2019-05-15T07:57:59.178Z,12.50
2019-05-15T08:00:31.002Z,12.60
2019-05-15T08:03:01.752Z,12.60
2019-05-15T08:05:32.496Z,12.60
2019-05-15T08:08:03.231Z,12.70
2019-05-15T08:10:34.300Z,12.70
2019-05-15T08:13:05.314Z,12.70
2019-05-15T08:15:37.985Z,12.80
2019-05-15T08:18:12.001Z,12.80
2019-05-15T08:20:40.398Z,12.90
2019-05-15T08:23:11.545Z,12.90
2019-05-15T08:25:42.489Z,13.10
2019-05-15T08:28:13.386Z,13.10
2019-05-15T08:30:44.126Z,13.30
2019-05-15T08:33:15.090Z,13.40
2019-05-15T08:35:51.155Z,13.50
2019-05-15T08:38:19.261Z,13.50
2019-05-15T08:40:49.579Z,13.60
2019-05-15T08:43:20.275Z,13.70
2019-05-15T08:45:51.467Z,14.10
2019-05-15T08:48:22.012Z,14.50
2019-05-15T08:50:53.155Z,14.60
2019-05-15T08:53:24.297Z,14.60
2019-05-15T08:55:55.168Z,14.50
2019-05-15T08:58:25.979Z,14.40
2019-05-15T09:00:58.717Z,14.40
2019-05-15T09:03:29.353Z,14.40
2019-05-15T09:06:00.651Z,14.40
2019-05-15T09:08:31.796Z,14.30
2019-05-15T09:11:01.985Z,14.40
2019-05-15T09:13:33.275Z,14.40
2019-05-15T09:16:04.147Z,14.30
2019-05-15T09:18:35.572Z,14.40
2019-05-15T09:21:08.878Z,14.50
2019-05-15T09:23:39.250Z,14.60
2019-05-15T09:26:11.263Z,14.70
2019-05-15T09:28:41.419Z,14.90
2019-05-15T09:31:12.353Z,15.20
2019-05-15T09:33:42.718Z,15.50
2019-05-15T09:36:13.742Z,16.00
2019-05-15T09:38:45.167Z,16.60
2019-05-15T09:41:17.787Z,17.10
2019-05-15T09:43:50.351Z,17.70
2019-05-15T09:46:20.864Z,18.50
2019-05-15T09:48:52.017Z,19.20
2019-05-15T09:51:23.298Z,19.90
2019-05-15T09:53:54.522Z,20.50
2019-05-15T09:56:28.925Z,21.10
2019-05-15T09:59:00.489Z,21.20
2019-05-15T10:01:31.164Z,21.60
2019-05-15T10:04:01.581Z,22.10
2019-05-15T10:06:32.303Z,22.10
2019-05-15T10:09:03.038Z,22.10
2019-05-15T10:11:34.794Z,22.10
2019-05-15T10:14:09.854Z,22.10
2019-05-15T10:16:40.169Z,22.30
2019-05-15T10:19:11.113Z,23.10
2019-05-15T10:21:41.866Z,23.80
2019-05-15T10:24:13.405Z,24.40
2019-05-15T10:26:44.549Z,24.90
2019-05-15T10:29:14.832Z,24.90
2019-05-15T10:31:48.097Z,24.30
2019-05-15T10:34:19.017Z,24.00
2019-05-15T10:36:49.758Z,24.20
2019-05-15T10:39:20.685Z,24.30
2019-05-15T10:41:51.039Z,24.40
2019-05-15T10:44:21.971Z,24.80
2019-05-15T10:46:52.084Z,25.50
2019-05-15T10:49:23.048Z,25.80
2019-05-15T10:51:53.782Z,25.60
2019-05-15T10:54:24.732Z,25.10
2019-05-15T10:56:54.796Z,25.00
2019-05-15T10:59:27.607Z,24.80
2019-05-15T11:01:59.047Z,24.70
2019-05-15T11:04:31.558Z,24.90
2019-05-15T11:07:01.695Z,25.20
2019-05-15T11:09:32.576Z,25.70
2019-05-15T11:12:03.567Z,26.10
2019-05-15T11:14:34.071Z,26.70
2019-05-15T11:17:05.050Z,27.10
2019-05-15T11:19:37.251Z,27.60
2019-05-15T11:22:09.086Z,27.70
2019-05-15T11:24:40.761Z,27.70
2019-05-15T11:27:11.896Z,27.30
2019-05-15T11:29:43.069Z,27.10
2019-05-15T11:32:14.739Z,27.30
2019-05-15T11:34:45.959Z,27.70
2019-05-15T11:37:18.978Z,27.80
2019-05-15T11:39:49.389Z,28.20
2019-05-15T11:42:21.038Z,28.30
2019-05-15T11:44:53.410Z,28.50
2019-05-15T11:47:24.767Z,28.70
2019-05-15T11:49:55.499Z,28.80
2019-05-15T11:52:29.211Z,28.60
2019-05-15T11:54:59.255Z,28.50
2019-05-15T11:57:42.358Z,28.60
2019-05-15T12:00:14.875Z,28.40
2019-05-15T12:02:40.025Z,27.70
2019-05-15T12:05:12.022Z,27.80
2019-05-15T12:07:42.746Z,28.30
2019-05-15T12:10:13.735Z,28.70
2019-05-15T12:12:45.061Z,28.30
2019-05-15T12:15:19.058Z,28.30
2019-05-15T12:17:49.724Z,28.50
2019-05-15T12:20:21.369Z,29.00
2019-05-15T12:22:51.919Z,29.50
2019-05-15T12:25:22.033Z,29.80
2019-05-15T12:27:53.167Z,29.90
2019-05-15T12:30:23.845Z,30.40
2019-05-15T12:32:54.649Z,30.60
2019-05-15T12:35:25.402Z,30.50
2019-05-15T12:37:55.717Z,30.40
2019-05-15T13:00:48.794Z,31.20
2019-05-15T13:03:20.510Z,31.20
2019-05-15T13:05:51.680Z,31.00
2019-05-15T13:08:22.640Z,31.00
2019-05-15T13:10:53.340Z,30.60
2019-05-15T13:13:24.021Z,30.20
2019-05-15T13:15:55.375Z,30.20
2019-05-15T13:18:28.636Z,29.80
2019-05-15T13:20:59.813Z,29.90
2019-05-15T13:23:31.119Z,30.20
2019-05-15T13:26:01.660Z,30.10
2019-05-15T13:28:32.335Z,30.00
2019-05-15T13:31:02.803Z,30.00
2019-05-15T13:33:33.402Z,29.70
2019-05-15T13:36:03.617Z,29.40
2019-05-15T13:38:34.117Z,29.20
2019-05-15T13:41:05.478Z,29.10
2019-05-15T13:43:35.949Z,29.50
2019-05-15T13:46:08.596Z,29.80
2019-05-15T13:48:38.809Z,29.90
2019-05-15T13:51:10.700Z,30.00
2019-05-15T13:53:41.419Z,30.00
2019-05-15T13:56:13.927Z,29.80
2019-05-15T13:58:44.208Z,29.70
2019-05-15T14:01:15.246Z,29.90
2019-05-15T14:03:48.301Z,30.20
2019-05-15T14:06:19.620Z,30.10
2019-05-15T14:08:50.012Z,30.30
2019-05-15T14:11:22.097Z,30.60
2019-05-15T14:13:53.197Z,30.60
2019-05-15T14:16:23.380Z,30.20
2019-05-15T14:18:54.168Z,30.20
2019-05-15T14:21:24.926Z,30.30
2019-05-15T14:23:59.741Z,30.30
2019-05-15T14:26:29.584Z,30.40
2019-05-15T14:29:00.142Z,30.00
2019-05-15T14:31:30.902Z,29.80
2019-05-15T14:34:02.147Z,29.60
2019-05-15T14:36:33.211Z,29.40
2019-05-15T14:39:05.272Z,29.30
2019-05-15T14:41:37.800Z,29.30
2019-05-15T14:44:16.747Z,29.30
2019-05-15T14:46:41.874Z,29.20
2019-05-15T14:49:12.660Z,28.70
2019-05-15T14:51:43.941Z,27.90
2019-05-15T14:54:14.700Z,27.30
2019-05-15T14:56:45.851Z,26.80
2019-05-15T14:59:16.381Z,26.20
2019-05-15T15:01:48.738Z,25.70
2019-05-15T15:04:20.259Z,25.40
2019-05-15T15:06:50.815Z,24.80
2019-05-15T15:09:21.794Z,24.30
2019-05-15T15:11:52.290Z,23.70
2019-05-15T15:14:22.376Z,23.10
2019-05-15T15:16:52.727Z,22.80
2019-05-15T15:19:22.772Z,22.40
2019-05-15T15:21:53.851Z,22.20
2019-05-15T15:24:24.734Z,21.90
2019-05-15T15:26:58.780Z,21.80
2019-05-15T15:29:29.679Z,21.70
2019-05-15T15:32:01.105Z,21.50
2019-05-15T15:34:30.809Z,21.20
2019-05-15T15:37:01.763Z,21.20
2019-05-15T15:39:32.899Z,21.20
2019-05-15T15:42:04.262Z,21.10
2019-05-15T15:44:35.001Z,21.10
2019-05-15T15:47:08.392Z,21.00
2019-05-15T15:49:38.728Z,20.80
2019-05-15T15:52:09.672Z,20.80
2019-05-15T15:54:40.414Z,20.90
2019-05-15T15:57:11.933Z,20.90
2019-05-15T15:59:42.642Z,20.70
2019-05-15T16:02:12.833Z,20.40
2019-05-15T16:04:43.569Z,20.20
2019-05-15T16:07:14.510Z,20.10
2019-05-15T16:09:48.149Z,20.10
2019-05-15T16:12:18.906Z,19.90
2019-05-15T16:14:49.595Z,19.80
2019-05-15T16:17:20.411Z,19.90
2019-05-15T16:19:50.665Z,20.00
2019-05-15T16:22:21.407Z,20.10
2019-05-15T16:24:52.284Z,20.20
2019-05-15T16:27:28.693Z,20.20
2019-05-15T16:29:59.489Z,20.10
2019-05-15T16:32:31.199Z,20.10
2019-05-15T16:35:02.471Z,20.00
2019-05-15T16:37:32.628Z,19.90
2019-05-15T16:40:02.775Z,19.90
2019-05-15T16:42:33.215Z,19.80
2019-05-15T16:45:04.364Z,19.70
2019-05-15T16:47:35.137Z,19.60
2019-05-15T16:50:06.472Z,19.50
2019-05-15T16:52:38.894Z,19.60
2019-05-15T16:55:12.609Z,19.70
2019-05-15T16:57:43.626Z,19.70
2019-05-15T17:00:15.390Z,19.70
2019-05-15T17:02:48.235Z,19.70
2019-05-15T17:05:19.747Z,19.80
2019-05-15T17:07:51.029Z,19.90
2019-05-15T17:10:21.976Z,20.10
2019-05-15T17:12:52.940Z,20.10
2019-05-15T17:15:23.497Z,19.90
2019-05-15T17:17:58.351Z,19.50
2019-05-15T17:20:28.666Z,19.30
2019-05-15T17:22:59.603Z,19.10
2019-05-15T17:25:30.346Z,19.00
2019-05-15T17:28:00.662Z,18.60
2019-05-15T17:30:31.146Z,18.40
2019-05-15T17:33:01.748Z,18.20
2019-05-15T17:35:32.884Z,17.90
2019-05-15T17:38:03.580Z,17.80
2019-05-15T17:40:34.516Z,17.60
2019-05-15T17:43:04.405Z,17.40
2019-05-15T17:45:35.774Z,17.30
2019-05-15T17:48:08.503Z,17.30
2019-05-15T17:50:48.410Z,17.10
2019-05-15T17:53:11.142Z,17.00
2019-05-15T17:55:44.324Z,16.80
2019-05-15T17:58:15.303Z,16.70
2019-05-15T18:00:48.485Z,16.60
2019-05-15T18:03:19.158Z,16.40
2019-05-15T18:05:50.762Z,16.40
2019-05-15T18:08:21.097Z,16.30
2019-05-15T18:10:51.854Z,16.20
2019-05-15T18:13:22.450Z,16.10
2019-05-15T18:15:53.308Z,16.00
2019-05-15T18:18:24.262Z,15.90
2019-05-15T18:20:55.295Z,15.70
2019-05-15T18:23:25.499Z,15.60
2019-05-15T18:25:58.451Z,15.40
2019-05-15T18:28:29.266Z,15.30
2019-05-15T18:30:59.621Z,15.20
2019-05-15T18:33:30.319Z,15.10
2019-05-15T18:36:01.264Z,15.00
2019-05-15T18:38:32.118Z,14.90
2019-05-15T18:41:03.866Z,14.80
2019-05-15T18:43:34.596Z,14.80
2019-05-15T18:46:05.872Z,14.60
2019-05-15T18:48:37.991Z,14.60
2019-05-15T18:51:08.709Z,14.50
2019-05-15T18:53:39.512Z,14.50
2019-05-15T18:56:10.453Z,14.30
2019-05-15T18:58:41.800Z,14.40
2019-05-15T19:01:12.214Z,14.40
2019-05-15T19:03:43.238Z,14.40
2019-05-15T19:06:14.032Z,14.30
2019-05-15T19:08:45.176Z,14.30
2019-05-15T19:11:18.339Z,14.20
2019-05-15T19:13:48.262Z,14.20
2019-05-15T19:16:21.478Z,14.20
2019-05-15T19:18:52.621Z,14.20
2019-05-15T19:21:22.758Z,14.10
2019-05-15T19:23:53.485Z,14.00
2019-05-15T19:26:24.227Z,14.10
2019-05-15T19:28:55.174Z,13.90
2019-05-15T19:31:27.931Z,13.90
2019-05-15T19:33:59.109Z,13.90
2019-05-15T19:36:30.871Z,13.80
2019-05-15T19:39:02.011Z,13.70
2019-05-15T19:41:34.809Z,13.60
2019-05-15T19:44:08.608Z,13.60
2019-05-15T19:46:38.844Z,13.50
2019-05-15T19:49:10.707Z,13.40
2019-05-15T19:51:41.655Z,13.40
2019-05-15T19:54:12.546Z,13.40
2019-05-15T19:56:43.379Z,13.50
2019-05-15T19:59:14.695Z,13.50
2019-05-15T20:01:45.410Z,13.50
2019-05-15T20:04:18.559Z,13.50
2019-05-15T20:06:49.082Z,13.50
2019-05-15T20:09:20.099Z,13.50
2019-05-15T20:11:50.829Z,13.50
2019-05-15T20:14:22.387Z,13.40
2019-05-15T20:16:53.371Z,13.40
2019-05-15T20:19:24.570Z,13.30
2019-05-15T20:21:55.222Z,13.30
2019-05-15T20:24:28.708Z,13.30
2019-05-15T20:26:59.756Z,13.30
2019-05-15T20:29:30.912Z,13.30
2019-05-15T20:32:02.066Z,13.20
2019-05-15T20:34:32.421Z,13.20
2019-05-15T20:37:02.963Z,13.20
2019-05-15T20:39:34.080Z,13.20
2019-05-15T20:42:05.018Z,13.20
2019-05-15T20:44:37.850Z,13.10
2019-05-15T20:47:08.722Z,13.10
2019-05-15T20:49:39.284Z,13.00
2019-05-15T20:52:09.738Z,13.00
2019-05-15T20:54:40.712Z,13.00
2019-05-15T20:57:11.559Z,12.90
2019-05-15T20:59:42.458Z,12.90
2019-05-15T21:02:13.598Z,12.90
2019-05-15T21:04:44.943Z,12.90
2019-05-15T21:07:15.889Z,12.80
2019-05-15T21:09:48.332Z,12.80
2019-05-15T21:12:20.160Z,12.70
2019-05-15T21:14:51.169Z,12.70
2019-05-15T21:17:22.484Z,12.70
2019-05-15T21:19:53.449Z,12.70
2019-05-15T21:22:24.612Z,12.60
2019-05-15T21:24:55.766Z,12.60
2019-05-15T21:27:31.910Z,12.50
2019-05-15T21:29:59.379Z,12.50
2019-05-15T21:32:30.848Z,12.50
2019-05-15T21:35:01.781Z,12.40
2019-05-15T21:37:33.950Z,12.40
2019-05-15T21:40:07.997Z,12.40
2019-05-15T21:42:41.504Z,12.40
2019-05-15T21:45:14.861Z,12.30
2019-05-15T21:47:44.088Z,12.40
2019-05-15T21:50:15.643Z,12.40
2019-05-15T21:52:49.115Z,12.30
2019-05-15T21:55:18.873Z,12.30
2019-05-15T21:57:49.702Z,12.30
2019-05-15T22:00:29.192Z,12.30
2019-05-15T22:03:01.412Z,12.30
2019-05-15T22:05:33.185Z,12.30
2019-05-15T22:08:58.349Z,12.30
2019-05-15T22:11:29.891Z,12.30
2019-05-15T22:14:00.270Z,12.30
2019-05-15T22:16:32.608Z,12.20
2019-05-15T22:19:03.531Z,12.20
2019-05-15T22:21:35.154Z,12.20
2019-05-15T22:24:08.739Z,12.20
2019-05-15T22:26:40.318Z,12.20
2019-05-15T22:29:11.472Z,12.20
2019-05-15T22:31:42.413Z,12.20
2019-05-15T22:34:12.958Z,12.20
2019-05-15T22:36:44.294Z,12.30
2019-05-15T22:39:14.420Z,12.30
2019-05-15T22:41:45.367Z,12.30
2019-05-15T22:44:19.140Z,12.30
2019-05-15T22:46:51.778Z,12.30
2019-05-15T22:49:23.323Z,12.30
2019-05-15T22:51:58.014Z,12.20
2019-05-15T22:54:28.109Z,12.20
2019-05-15T22:56:59.215Z,12.20
2019-05-15T22:59:29.953Z,12.20
2019-05-15T23:01:59.985Z,12.10
2019-05-15T23:04:30.819Z,12.10
2019-05-15T23:07:01.125Z,12.10
2019-05-15T23:09:31.897Z,12.10
2019-05-15T23:12:03.448Z,12.10
2019-05-15T23:14:33.567Z,12.10
2019-05-15T23:17:04.509Z,12.00
2019-05-15T23:19:35.385Z,11.90
2019-05-15T23:22:08.336Z,11.90
2019-05-15T23:24:39.118Z,11.90
2019-05-15T23:27:09.639Z,11.90
2019-05-15T23:29:39.839Z,11.80
2019-05-15T23:32:10.119Z,11.80
2019-05-15T23:34:41.527Z,11.80
2019-05-15T23:37:13.405Z,11.80
2019-05-15T23:39:43.737Z,11.80
2019-05-15T23:42:14.559Z,11.80
2019-05-15T23:44:45.706Z,11.90
2019-05-15T23:47:17.971Z,11.90
2019-05-15T23:49:48.777Z,11.90
2019-05-15T23:52:19.350Z,11.90
2019-05-15T23:54:50.475Z,11.90
2019-05-15T23:57:20.826Z,11.90
2019-05-15T23:59:51.605Z,11.90
